createdAt,value
2024-05-09T00:01:05.370Z,10.77
2024-05-09T00:03:35.835Z,12.17
2024-05-09T00:06:11.926Z,13.53
2024-05-09T00:08:48.668Z,14.10
2024-05-09T00:11:20.496Z,13.70
2024-05-09T00:13:53.754Z,13.07
2024-05-09T00:16:29.044Z,12.90
2024-05-09T00:19:00.051Z,11.70
2024-05-09T00:21:33.107Z,12.90
2024-05-09T00:24:03.717Z,12.47
2024-05-09T00:26:33.799Z,11.80
2024-05-09T00:29:08.562Z,14.73
2024-05-09T00:31:38.754Z,14.53
2024-05-09T00:34:12.223Z,14.03
2024-05-09T00:36:42.497Z,15.47
2024-05-09T00:39:13.650Z,14.83
2024-05-09T00:41:44.326Z,12.70
2024-05-09T00:44:18.472Z,11.33
2024-05-09T00:46:53.363Z,11.63
2024-05-09T00:49:25.643Z,11.50
2024-05-09T00:51:57.742Z,11.40
2024-05-09T00:54:29.694Z,11.93
2024-05-09T00:57:00.181Z,12.03
2024-05-09T00:59:36.220Z,14.03
2024-05-09T01:02:09.452Z,16.27
2024-05-09T01:04:40.371Z,17.83
2024-05-09T01:07:13.630Z,18.13
2024-05-09T01:09:44.260Z,18.07
2024-05-09T01:12:14.418Z,17.70
2024-05-09T01:14:51.888Z,15.13
2024-05-09T01:17:22.260Z,14.77
2024-05-09T01:19:54.959Z,14.37
2024-05-09T01:22:31.217Z,13.33
2024-05-09T01:25:04.768Z,13.60
2024-05-09T01:27:54.441Z,13.57
2024-05-09T01:30:31.906Z,14.13
2024-05-09T01:33:24.061Z,15.20
2024-05-09T01:35:56.321Z,15.57
2024-05-09T01:38:32.448Z,14.23
2024-05-09T01:41:06.579Z,14.53
2024-05-09T01:43:38.314Z,15.17
2024-05-09T01:46:17.037Z,22.63
2024-05-09T01:48:53.175Z,21.03
2024-05-09T01:51:43.484Z,22.63
2024-05-09T01:54:15.413Z,21.90
2024-05-09T01:56:49.248Z,21.60
2024-05-09T01:59:20.114Z,20.67
2024-05-09T02:01:56.840Z,18.03
2024-05-09T02:04:30.646Z,15.13
2024-05-09T02:07:01.640Z,14.40
2024-05-09T02:09:33.553Z,12.60
2024-05-09T02:12:07.308Z,11.87
2024-05-09T02:14:48.967Z,8.57
2024-05-09T02:17:27.254Z,9.50
2024-05-09T02:20:03.660Z,7.30
2024-05-09T02:22:40.007Z,7.20
2024-05-09T02:25:13.220Z,6.90
2024-05-09T02:27:53.388Z,7.20
2024-05-09T02:30:38.769Z,6.83
2024-05-09T02:33:15.100Z,6.90
2024-05-09T02:35:50.269Z,6.80
2024-05-09T02:38:21.855Z,6.53
2024-05-09T02:41:01.929Z,8.00
2024-05-09T02:43:33.159Z,7.80
2024-05-09T02:46:03.323Z,7.40
2024-05-09T02:48:30.869Z,7.47
2024-05-09T02:51:01.143Z,7.40
2024-05-09T02:53:28.708Z,7.20
2024-05-09T02:55:59.382Z,7.87
2024-05-09T02:58:26.874Z,6.53
2024-05-09T03:00:59.819Z,6.60
2024-05-09T03:03:27.854Z,6.67
2024-05-09T03:05:57.917Z,6.43
2024-05-09T03:08:28.599Z,6.53
2024-05-09T03:10:56.246Z,6.83
2024-05-09T03:13:26.289Z,7.57
2024-05-09T03:15:56.477Z,7.47
2024-05-09T03:18:26.754Z,7.37
2024-05-09T03:20:54.624Z,7.43
2024-05-09T03:23:24.939Z,7.47
2024-05-09T03:25:54.466Z,8.20
2024-05-09T03:28:24.490Z,8.53
2024-05-09T03:30:52.268Z,9.20
2024-05-09T03:33:25.010Z,9.30
2024-05-09T03:35:52.963Z,9.80
2024-05-09T03:38:23.348Z,9.13
2024-05-09T03:40:53.980Z,9.00
2024-05-09T03:43:24.066Z,8.40
2024-05-09T03:45:51.478Z,7.93
2024-05-09T03:48:24.968Z,7.20
2024-05-09T03:50:52.690Z,7.17
2024-05-09T03:53:24.151Z,9.27
2024-05-09T03:55:51.968Z,8.53
2024-05-09T03:58:23.522Z,9.73
2024-05-09T04:00:51.233Z,13.20
2024-05-09T04:03:24.876Z,12.90
2024-05-09T04:05:52.873Z,15.13
2024-05-09T04:08:23.371Z,12.83
2024-05-09T04:10:51.995Z,11.40
2024-05-09T04:13:22.030Z,9.43
2024-05-09T04:15:50.198Z,8.97
2024-05-09T04:18:21.140Z,7.77
2024-05-09T04:20:51.888Z,7.40
2024-05-09T04:23:23.221Z,7.40
2024-05-09T04:25:54.447Z,7.23
2024-05-09T04:28:28.002Z,7.70
2024-05-09T04:30:56.113Z,7.17
2024-05-09T04:33:26.716Z,7.40
2024-05-09T04:35:57.017Z,7.60
2024-05-09T04:38:27.206Z,8.07
2024-05-09T04:40:54.784Z,9.03
2024-05-09T04:43:25.108Z,7.97
2024-05-09T04:45:53.718Z,8.97
2024-05-09T04:48:24.141Z,8.50
2024-05-09T04:50:51.758Z,7.83
2024-05-09T04:53:24.832Z,8.50
2024-05-09T04:55:53.614Z,8.07
2024-05-09T04:58:24.182Z,8.17
2024-05-09T05:00:51.811Z,7.80
2024-05-09T05:03:25.054Z,7.60
2024-05-09T05:05:52.669Z,7.83
2024-05-09T05:08:25.327Z,8.10
2024-05-09T05:10:53.180Z,8.73
2024-05-09T05:13:24.354Z,9.23
2024-05-09T05:15:55.630Z,10.03
2024-05-09T05:18:27.240Z,10.97
2024-05-09T05:20:56.249Z,10.47
2024-05-09T05:23:29.349Z,11.10
2024-05-09T05:25:57.138Z,10.50
2024-05-09T05:28:27.333Z,9.90
2024-05-09T05:30:54.803Z,10.87
2024-05-09T05:33:25.195Z,11.00
2024-05-09T05:35:52.939Z,11.13
2024-05-09T05:38:26.251Z,11.83
2024-05-09T05:40:58.245Z,10.90
2024-05-09T05:43:29.799Z,9.97
2024-05-09T05:45:57.286Z,10.67
2024-05-09T05:48:27.492Z,9.97
2024-05-09T05:50:55.057Z,8.90
2024-05-09T05:53:25.097Z,9.63
2024-05-09T05:55:53.025Z,8.70
2024-05-09T05:58:25.776Z,8.63
2024-05-09T06:00:54.021Z,8.53
2024-05-09T06:03:24.179Z,8.20
2024-05-09T06:05:51.994Z,7.93
2024-05-09T06:08:22.354Z,8.13
2024-05-09T06:10:50.353Z,7.60
2024-05-09T06:13:20.534Z,7.60
2024-05-09T06:15:50.697Z,8.13
2024-05-09T06:18:21.076Z,8.90
2024-05-09T06:20:48.939Z,7.57
2024-05-09T06:23:19.434Z,7.77
2024-05-09T06:25:47.279Z,8.30
2024-05-09T06:28:17.409Z,7.30
2024-05-09T06:30:45.048Z,7.50
2024-05-09T06:33:17.918Z,7.63
2024-05-09T06:35:46.908Z,7.27
2024-05-09T06:38:17.329Z,6.70
2024-05-09T06:40:45.356Z,6.70
2024-05-09T06:43:17.862Z,7.00
2024-05-09T06:45:48.464Z,6.80
2024-05-09T06:48:23.598Z,6.50
2024-05-09T06:50:51.392Z,6.40
2024-05-09T06:53:24.723Z,6.60
2024-05-09T06:55:53.070Z,6.30
2024-05-09T06:58:23.302Z,7.13
2024-05-09T07:00:50.883Z,7.17
2024-05-09T07:03:24.171Z,6.30
2024-05-09T07:05:52.622Z,6.70
2024-05-09T07:08:22.775Z,6.60
2024-05-09T07:10:50.574Z,6.03
2024-05-09T07:13:21.076Z,6.60
2024-05-09T07:15:48.609Z,6.13
2024-05-09T07:18:20.394Z,6.37
2024-05-09T07:20:51.238Z,6.53
2024-05-09T07:23:21.894Z,5.60
2024-05-09T07:25:49.639Z,6.17
2024-05-09T07:28:21.593Z,6.23
2024-05-09T07:30:49.120Z,6.03
2024-05-09T07:33:21.345Z,5.80
2024-05-09T07:35:53.430Z,5.97
2024-05-09T07:38:24.432Z,5.90
2024-05-09T07:40:51.962Z,6.17
2024-05-09T07:43:22.380Z,6.53
2024-05-09T07:45:54.046Z,6.57
2024-05-09T07:50:00.291Z,6.80
2024-05-09T07:53:53.601Z,6.70
2024-05-09T07:56:26.051Z,6.53
2024-05-09T07:58:56.575Z,6.00
2024-05-09T08:01:27.228Z,5.57
2024-05-09T08:03:57.819Z,5.20
2024-05-09T08:06:28.492Z,5.03
2024-05-09T08:09:02.657Z,5.17
2024-05-09T08:11:33.017Z,4.70
2024-05-09T08:14:03.189Z,5.10
2024-05-09T08:16:30.704Z,5.27
2024-05-09T08:19:01.134Z,5.20
2024-05-09T08:21:31.307Z,5.60
2024-05-09T08:24:01.460Z,4.53
2024-05-09T08:26:29.878Z,4.87
2024-05-09T08:29:00.201Z,4.20
2024-05-09T08:31:27.736Z,4.20
2024-05-09T08:33:58.357Z,3.70
2024-05-09T08:36:25.985Z,3.80
2024-05-09T08:38:58.741Z,3.93
2024-05-09T08:41:28.030Z,3.83
2024-05-09T08:43:58.487Z,3.87
2024-05-09T08:46:29.082Z,3.60
2024-05-09T08:49:00.974Z,3.30
2024-05-09T08:51:29.156Z,3.30
2024-05-09T08:54:01.903Z,3.47
2024-05-09T08:56:33.803Z,3.47
2024-05-09T08:59:04.632Z,3.60
2024-05-09T09:01:33.792Z,3.30
2024-05-09T09:04:06.964Z,3.33
2024-05-09T09:06:36.440Z,3.13
2024-05-09T09:09:09.390Z,3.50
2024-05-09T09:11:36.922Z,3.03
2024-05-09T09:14:07.210Z,3.37
2024-05-09T09:16:34.945Z,3.00
2024-05-09T09:19:05.743Z,3.23
2024-05-09T09:21:33.543Z,2.90
2024-05-09T09:24:03.691Z,2.90
2024-05-09T09:26:34.003Z,2.83
2024-05-09T09:29:04.429Z,3.10
2024-05-09T09:31:32.320Z,2.77
2024-05-09T09:34:10.039Z,2.47
2024-05-09T09:36:41.588Z,3.00
2024-05-09T09:39:12.692Z,2.77
2024-05-09T09:41:47.270Z,2.73
2024-05-09T09:44:18.444Z,2.40
2024-05-09T09:46:46.830Z,2.83
2024-05-09T09:49:17.962Z,2.93
2024-05-09T09:51:47.032Z,2.60
2024-05-09T09:54:17.410Z,3.37
2024-05-09T09:56:48.946Z,2.50
2024-05-09T09:59:19.168Z,2.70
2024-05-09T10:01:47.133Z,3.43
2024-05-09T10:04:19.046Z,3.43
2024-05-09T10:07:01.381Z,2.53
2024-05-09T10:09:31.589Z,2.93
2024-05-09T10:12:09.862Z,2.73
2024-05-09T10:14:44.279Z,2.97
2024-05-09T10:17:12.462Z,2.80
2024-05-09T10:19:42.793Z,2.60
2024-05-09T10:22:10.654Z,3.03
2024-05-09T10:24:50.976Z,3.20
2024-05-09T10:27:31.334Z,2.90
2024-05-09T10:30:00.234Z,2.93
2024-05-09T10:32:32.751Z,3.10
2024-05-09T10:35:01.107Z,2.90
2024-05-09T10:37:31.817Z,2.70
2024-05-09T10:40:00.968Z,3.00
2024-05-09T10:42:36.393Z,3.00
2024-05-09T10:45:04.616Z,2.90
2024-05-09T10:47:35.154Z,3.30
2024-05-09T10:50:07.739Z,3.40
2024-05-09T10:52:40.718Z,3.07
2024-05-09T10:55:08.323Z,3.00
2024-05-09T10:57:44.162Z,2.83
2024-05-09T11:00:18.846Z,3.13
2024-05-09T11:02:53.687Z,2.93
2024-05-09T11:05:21.673Z,3.00
2024-05-09T11:07:52.646Z,3.37
2024-05-09T11:10:27.398Z,3.27
2024-05-09T11:13:05.233Z,3.20
2024-05-09T11:15:39.938Z,2.90
2024-05-09T11:18:10.897Z,3.13
2024-05-09T11:20:39.030Z,2.93
2024-05-09T11:23:11.110Z,2.47
2024-05-09T11:25:38.903Z,3.27
2024-05-09T11:28:11.607Z,3.20
2024-05-09T11:30:39.485Z,3.20
2024-05-09T11:33:13.305Z,3.30
2024-05-09T11:35:41.666Z,3.10
2024-05-09T11:38:11.756Z,2.70
2024-05-09T11:40:39.882Z,3.20
2024-05-09T11:43:12.663Z,3.10
2024-05-09T11:45:40.693Z,2.60
2024-05-09T11:48:11.114Z,3.40
2024-05-09T11:50:39.199Z,3.27
2024-05-09T11:53:09.522Z,2.87
2024-05-09T11:55:38.126Z,3.20
2024-05-09T11:58:08.818Z,3.20
2024-05-09T12:00:39.183Z,3.10
2024-05-09T12:03:09.659Z,3.10
2024-05-09T12:05:37.201Z,2.80
2024-05-09T12:08:08.428Z,3.60
2024-05-09T12:10:37.042Z,3.53
2024-05-09T12:13:08.078Z,3.13
2024-05-09T12:15:39.266Z,3.40
2024-05-09T12:18:09.987Z,3.37
2024-05-09T12:20:39.770Z,3.40
2024-05-09T12:23:11.407Z,3.10
2024-05-09T12:25:39.986Z,3.60
2024-05-09T12:28:10.758Z,2.63
2024-05-09T12:30:41.730Z,3.27
2024-05-09T12:33:13.829Z,3.73
2024-05-09T12:35:44.451Z,3.57
2024-05-09T12:38:16.950Z,3.00
2024-05-09T12:40:44.637Z,3.17
2024-05-09T12:43:14.694Z,2.80
2024-05-09T12:45:45.164Z,3.00
2024-05-09T12:48:15.381Z,3.60
2024-05-09T12:50:43.602Z,3.40
2024-05-09T12:53:14.036Z,3.10
2024-05-09T12:55:48.646Z,3.53
2024-05-09T12:58:26.668Z,3.17
2024-05-09T13:00:57.255Z,3.37
2024-05-09T13:03:27.458Z,2.73
2024-05-09T13:05:55.739Z,3.27
2024-05-09T13:08:26.233Z,3.07
2024-05-09T13:10:54.224Z,2.90
2024-05-09T13:13:24.437Z,3.47
2024-05-09T13:15:52.236Z,3.30
2024-05-09T13:18:24.996Z,3.10
2024-05-09T13:20:52.421Z,3.30
2024-05-09T13:23:22.631Z,2.83
2024-05-09T13:25:50.364Z,3.00
2024-05-09T13:28:21.306Z,2.70
2024-05-09T13:30:48.832Z,2.53
2024-05-09T13:33:18.980Z,3.60
2024-05-09T13:35:50.879Z,3.30
2024-05-09T13:38:22.615Z,2.90
2024-05-09T13:40:50.846Z,2.90
2024-05-09T13:43:22.311Z,2.93
2024-05-09T13:45:50.140Z,2.70
2024-05-09T13:48:20.586Z,2.83
2024-05-09T13:50:51.908Z,2.70
2024-05-09T13:53:22.449Z,3.37
2024-05-09T13:55:50.253Z,3.03
2024-05-09T13:58:20.616Z,3.40
2024-05-09T14:00:49.425Z,3.47
2024-05-09T14:03:21.446Z,3.50
2024-05-09T14:05:52.317Z,3.30
2024-05-09T14:08:23.476Z,3.00
2024-05-09T14:10:51.064Z,2.97
2024-05-09T14:13:22.862Z,3.33
2024-05-09T14:15:50.887Z,3.40
2024-05-09T14:18:21.537Z,3.00
2024-05-09T14:20:51.605Z,3.20
2024-05-09T14:23:22.483Z,2.80
2024-05-09T14:25:52.957Z,3.20
2024-05-09T14:28:24.626Z,3.00
2024-05-09T14:30:52.416Z,2.97
2024-05-09T14:33:27.113Z,2.73
2024-05-09T14:35:57.560Z,2.60
2024-05-09T14:38:28.231Z,2.97
2024-05-09T14:40:56.020Z,3.40
2024-05-09T14:43:26.502Z,2.90
2024-05-09T14:45:55.834Z,2.97
2024-05-09T14:48:27.035Z,3.30
2024-05-09T14:50:57.298Z,4.00
2024-05-09T14:53:28.368Z,3.00
2024-05-09T14:55:56.044Z,4.30
2024-05-09T14:58:26.518Z,4.43
2024-05-09T15:00:54.239Z,4.10
2024-05-09T15:03:24.740Z,4.47
2024-05-09T15:05:52.601Z,4.00
2024-05-09T15:08:25.789Z,3.60
2024-05-09T15:10:53.465Z,3.50
2024-05-09T15:13:24.044Z,3.17
2024-05-09T15:15:51.909Z,4.20
2024-05-09T15:18:22.437Z,4.03
2024-05-09T15:20:50.295Z,4.07
2024-05-09T15:23:20.700Z,3.70
2024-05-09T15:25:51.062Z,4.03
2024-05-09T15:28:21.918Z,4.03
2024-05-09T15:30:49.941Z,3.80
2024-05-09T15:33:20.571Z,3.50
2024-05-09T15:35:48.124Z,3.10
2024-05-09T15:38:19.061Z,5.03
2024-05-09T15:40:46.733Z,5.57
2024-05-09T15:43:19.704Z,4.23
2024-05-09T15:45:47.209Z,4.60
2024-05-09T15:48:17.935Z,3.60
2024-05-09T15:50:45.696Z,6.30
2024-05-09T15:53:16.573Z,4.73
2024-05-09T15:55:44.094Z,3.80
2024-05-09T15:58:14.330Z,2.97
2024-05-09T16:00:49.581Z,3.60
2024-05-09T16:03:21.520Z,8.83
2024-05-09T16:05:53.210Z,14.60
2024-05-09T16:08:21.216Z,8.30
2024-05-09T16:10:51.752Z,5.00
2024-05-09T16:13:20.110Z,10.60
2024-05-09T16:15:53.709Z,8.40
2024-05-09T16:18:21.642Z,6.17
2024-05-09T16:20:59.378Z,2.60
2024-05-09T16:23:27.146Z,2.37
2024-05-09T16:25:57.769Z,3.37
2024-05-09T16:28:26.993Z,8.37
2024-05-09T16:31:01.477Z,9.50
2024-05-09T16:33:29.735Z,8.30
2024-05-09T16:36:00.402Z,10.03
2024-05-09T16:38:28.164Z,10.90
2024-05-09T16:40:58.202Z,9.77
2024-05-09T16:43:26.420Z,4.17
2024-05-09T16:45:59.378Z,2.70
2024-05-09T16:48:27.114Z,3.23
2024-05-09T16:50:57.069Z,2.70
2024-05-09T16:53:25.941Z,2.60
2024-05-09T16:55:56.080Z,3.13
2024-05-09T16:58:26.980Z,2.97
2024-05-09T17:00:57.308Z,2.87
2024-05-09T17:03:27.515Z,3.47
2024-05-09T17:05:55.137Z,2.43
2024-05-09T17:08:25.542Z,2.50
2024-05-09T17:10:53.465Z,2.50
2024-05-09T17:13:23.948Z,2.70
2024-05-09T17:15:54.016Z,2.90
2024-05-09T17:18:27.271Z,2.73
2024-05-09T17:20:54.871Z,2.80
2024-05-09T17:23:25.311Z,2.83
2024-05-09T17:25:55.310Z,2.80
2024-05-09T17:28:23.171Z,2.70
2024-05-09T17:30:53.339Z,2.80
2024-05-09T17:33:23.742Z,3.03
2024-05-09T17:35:54.026Z,2.83
2024-05-09T17:38:23.602Z,2.60
2024-05-09T17:40:54.379Z,2.67
2024-05-09T17:43:25.295Z,2.37
2024-05-09T17:45:55.624Z,2.30
2024-05-09T17:48:26.084Z,2.27
2024-05-09T17:50:56.121Z,2.40
2024-05-09T17:53:23.752Z,2.70
2024-05-09T17:55:55.779Z,2.70
2024-05-09T17:58:23.768Z,2.17
2024-05-09T18:00:53.921Z,2.70
2024-05-09T18:03:23.723Z,2.73
2024-05-09T18:05:56.513Z,2.40
2024-05-09T18:08:24.592Z,3.20
2024-05-09T18:10:55.578Z,3.20
2024-05-09T18:13:23.814Z,3.90
2024-05-09T18:15:54.116Z,4.00
2024-05-09T18:18:21.989Z,4.33
2024-05-09T18:20:52.618Z,3.53
2024-05-09T18:23:23.433Z,4.00
2024-05-09T18:25:54.623Z,4.23
2024-05-09T18:28:23.574Z,4.47
2024-05-09T18:30:53.745Z,3.93
2024-05-09T18:33:21.786Z,4.10
2024-05-09T18:35:51.938Z,3.40
2024-05-09T18:38:25.762Z,3.50
2024-05-09T18:40:56.134Z,3.17
2024-05-09T18:43:31.016Z,3.20
2024-05-09T18:46:06.433Z,2.57
2024-05-09T18:48:34.585Z,2.53
2024-05-09T18:51:05.646Z,2.60
2024-05-09T18:53:38.752Z,2.63
2024-05-09T18:56:07.530Z,2.43
2024-05-09T18:58:37.535Z,2.27
2024-05-09T19:01:05.422Z,2.30
2024-05-09T19:03:36.093Z,2.23
2024-05-09T19:06:04.547Z,2.13
2024-05-09T19:08:34.959Z,2.33
2024-05-09T19:11:05.437Z,2.37
2024-05-09T19:13:35.841Z,4.03
2024-05-09T19:16:06.295Z,4.47
2024-05-09T19:18:34.441Z,2.40
2024-05-09T19:21:04.781Z,2.57
2024-05-09T19:23:35.476Z,2.37
2024-05-09T19:26:10.992Z,2.90
2024-05-09T19:28:40.383Z,4.27
2024-05-09T19:31:10.849Z,4.73
2024-05-09T19:33:38.650Z,6.63
2024-05-09T19:36:09.821Z,6.60
2024-05-09T19:38:37.385Z,6.10
2024-05-09T19:41:10.585Z,4.03
2024-05-09T19:43:38.039Z,3.70
2024-05-09T19:46:08.568Z,3.83
2024-05-09T19:48:36.531Z,2.77
2024-05-09T19:51:07.472Z,2.50
2024-05-09T19:53:35.096Z,2.80
2024-05-09T19:56:05.172Z,2.77
2024-05-09T19:58:35.584Z,2.90
2024-05-09T20:01:05.742Z,5.50
2024-05-09T20:03:36.841Z,12.63
2024-05-09T20:06:08.052Z,12.80
2024-05-09T20:08:35.774Z,18.97
2024-05-09T20:11:05.802Z,22.77
2024-05-09T20:13:36.854Z,19.73
2024-05-09T20:16:08.412Z,17.27
2024-05-09T20:18:36.136Z,16.10
2024-05-09T20:21:06.951Z,21.03
2024-05-09T20:23:34.444Z,19.00
2024-05-09T20:26:04.859Z,16.57
2024-05-09T20:28:32.381Z,16.20
2024-05-09T20:31:06.275Z,17.07
2024-05-09T20:33:34.108Z,17.80
2024-05-09T20:36:04.474Z,16.70
2024-05-09T20:38:31.913Z,16.77
2024-05-09T20:41:02.207Z,16.80
2024-05-09T20:43:29.885Z,14.87
2024-05-09T20:46:00.206Z,13.47
2024-05-09T20:48:31.041Z,11.57
2024-05-09T20:51:01.185Z,11.17
2024-05-09T20:53:28.787Z,10.60
2024-05-09T20:55:58.828Z,10.47
2024-05-09T20:58:26.289Z,9.63
2024-05-09T21:00:56.433Z,10.20
2024-05-09T21:03:28.349Z,10.30
2024-05-09T21:05:58.451Z,11.23
2024-05-09T21:08:28.923Z,10.63
2024-05-09T21:10:56.593Z,9.70
2024-05-09T21:13:27.125Z,10.20
2024-05-09T21:15:54.817Z,12.03
2024-05-09T21:18:25.156Z,13.10
2024-05-09T21:20:52.733Z,13.93
2024-05-09T21:23:25.551Z,15.47
2024-05-09T21:25:53.111Z,17.03
2024-05-09T21:28:23.537Z,17.37
2024-05-09T21:30:51.166Z,16.47
2024-05-09T21:33:21.916Z,15.87
2024-05-09T21:35:49.536Z,15.73
2024-05-09T21:38:19.792Z,14.30
2024-05-09T21:40:49.975Z,14.40
2024-05-09T21:43:20.762Z,15.60
2024-05-09T21:45:48.374Z,14.67
2024-05-09T21:48:18.800Z,14.93
2024-05-09T21:50:46.249Z,14.07
2024-05-09T21:53:17.107Z,14.43
2024-05-09T21:55:44.958Z,15.27
2024-05-09T21:58:18.278Z,14.43
2024-05-09T22:00:46.466Z,14.33
2024-05-09T22:03:17.815Z,14.47
2024-05-09T22:05:45.890Z,15.80
2024-05-09T22:08:17.008Z,16.63
2024-05-09T22:10:44.851Z,14.67
2024-05-09T22:13:19.395Z,15.10
2024-05-09T22:15:46.939Z,13.63
2024-05-09T22:18:17.402Z,14.00
2024-05-09T22:20:46.462Z,15.50
2024-05-09T22:23:18.226Z,14.60
2024-05-09T22:25:45.865Z,14.60
2024-05-09T22:28:20.673Z,15.23
2024-05-09T22:30:50.427Z,16.00
2024-05-09T22:33:20.767Z,14.97
2024-05-09T22:35:48.414Z,14.83
2024-05-09T22:38:18.875Z,15.00
2024-05-09T22:40:49.241Z,15.40
2024-05-09T22:43:25.185Z,14.40
2024-05-09T22:45:54.741Z,14.30
2024-05-09T22:48:26.527Z,16.80
2024-05-09T22:50:54.500Z,17.50
2024-05-09T22:53:25.906Z,20.20
2024-05-09T22:55:54.282Z,19.57
2024-05-09T22:58:27.492Z,21.03
2024-05-09T23:00:55.075Z,19.57
2024-05-09T23:03:26.010Z,21.17
2024-05-09T23:05:53.683Z,19.97
2024-05-09T23:08:23.915Z,20.70
2024-05-09T23:10:51.952Z,20.63
2024-05-09T23:13:22.332Z,20.47
2024-05-09T23:15:53.030Z,20.93
2024-05-09T23:18:23.352Z,22.53
2024-05-09T23:24:44.092Z,20.20
2024-05-09T23:27:11.803Z,19.83
2024-05-09T23:29:41.792Z,19.90
2024-05-09T23:32:12.077Z,22.53
2024-05-09T23:34:42.244Z,22.83
2024-05-09T23:37:10.862Z,22.37
2024-05-09T23:39:41.142Z,22.40
2024-05-09T23:42:08.835Z,22.80
2024-05-09T23:44:38.760Z,22.13
2024-05-09T23:47:08.579Z,21.33
2024-05-09T23:49:43.301Z,18.77
2024-05-09T23:52:11.352Z,17.80
2024-05-09T23:54:42.324Z,17.10
2024-05-09T23:57:10.128Z,18.13
2024-05-09T23:59:40.165Z,19.57
